Hafnia Soya — 9V3282 — position and weather

sailwx.info

Track history (hours):
 
Tides and Currents Weather Stations Pressure Air Temp Water Temp Dewpoint Dewpoint Depression Visibility Wind Speed Wind Dir Waves Ship Positions

Hafnia Soya

Last reported at 2017-Oct-19 18:30 UTC. Time now 2017-Oct-19 18:41 UTC.
Position N 44°10' E 014°24'.

Length 184 m; draft 10.4 m.

Type: Tanker. MMSI: 566583000.

Date/timePositionNaut miles runAvg speedWind from/ knotsBaromVisibWave heightAir tempDewpointWater temp
2017-Oct-19 18:30N 44°10' E 014°24'612.2
2017-Oct-19 18:00N 44°04' E 014°27'612.1
2017-Oct-19 17:30N 43°59' E 014°31'612.3
2017-Oct-19 17:00N 43°53' E 014°35'612.5
2017-Oct-19 16:30N 43°48' E 014°40'612.4
2017-Oct-19 16:00N 43°42' E 014°44'9612.3
2017-Oct-19 08:14N 42°26' E 016°02'8912.2
2017-Oct-19 00:58N 41°22' E 017°24'911.4
2017-Oct-19 00:10N 41°15' E 017°33'211.2
2017-Oct-19 00:01N 41°14' E 017°35'611.2
2017-Oct-18 23:30N 41°10' E 017°40'2011.4
2017-Oct-18 21:47N 40°56' E 017°57'410.9
2017-Oct-18 21:25N 40°53' E 018°01'410.9
2017-Oct-18 21:00N 40°50' E 018°05'611.3
2017-Oct-18 20:31N 40°46' E 018°10'611.5
2017-Oct-18 20:00N 40°41' E 018°16'611.6
2017-Oct-18 19:30N 40°37' E 018°21'611.7
2017-Oct-18 19:00N 40°33' E 018°26'612.3
2017-Oct-18 18:30N 40°29' E 018°32'612.2
2017-Oct-18 18:00N 40°25' E 018°38'810.9
2017-Oct-18 17:15N 40°17' E 018°43'311.8
2017-Oct-18 17:00N 40°14' E 018°43'711.9
2017-Oct-18 16:26N 40°07' E 018°43'811.9
2017-Oct-18 15:45N 39°60' E 018°41'812.1
2017-Oct-18 15:07N 39°52' E 018°37'211.8
2017-Oct-18 14:56N 39°51' E 018°36'1112.3
2017-Oct-18 14:01N 39°40' E 018°29'612.3
2017-Oct-18 13:30N 39°36' E 018°24'612.2
2017-Oct-18 12:59N 39°31' E 018°18'612.2
2017-Oct-18 12:30N 39°27' E 018°13'611.8
2017-Oct-18 12:00N 39°23' E 018°08'611.8
2017-Oct-18 11:31N 39°18' E 018°02'612.1
2017-Oct-18 11:01N 39°14' E 017°57'611.9
2017-Oct-18 10:30N 39°10' E 017°51'611.8
2017-Oct-18 10:00N 39°06' E 017°46'611.7
2017-Oct-18 09:31N 39°02' E 017°41'611.8
2017-Oct-18 09:01N 38°58' E 017°35'611.8
2017-Oct-18 08:30N 38°53' E 017°30'611.9
2017-Oct-18 08:00N 38°49' E 017°25'611.6
2017-Oct-18 07:31N 38°45' E 017°19'711.5
2017-Oct-18 06:56N 38°40' E 017°14'511.6
2017-Oct-18 06:31N 38°37' E 017°09'611.4
2017-Oct-18 06:00N 38°33' E 017°04'611.3
2017-Oct-18 05:29N 38°28' E 016°58'511.2
2017-Oct-18 05:01N 38°25' E 016°54'811.6
2017-Oct-18 04:18N 38°19' E 016°46'511.9
2017-Oct-18 03:53N 38°15' E 016°42'1411.7
2017-Oct-18 02:44N 38°06' E 016°30'2911.5
2017-Oct-18 00:15N 37°46' E 016°04'411.7
2017-Oct-17 23:53N 37°42' E 016°00'511.8
2017-Oct-17 23:29N 37°39' E 015°56'612.1
2017-Oct-17 23:00N 37°35' E 015°51'612.3
2017-Oct-17 22:29N 37°30' E 015°45'612.4
2017-Oct-17 22:00N 37°26' E 015°40'712.5
2017-Oct-17 21:26N 37°21' E 015°34'  
2017-Oct-13 06:29N 37°34' E 015°50'510.3
2017-Oct-13 06:00N 37°38' E 015°54'610.5
2017-Oct-13 05:28N 37°42' E 015°59'510.6
2017-Oct-13 04:57N 37°46' E 016°04'3210.6
2017-Oct-13 01:53N 38°09' E 016°33'6410.6
2017-Oct-12 19:48N 38°54' E 017°31'1510.3
2017-Oct-12 18:23N 39°05' E 017°44'1110.6
2017-Oct-12 17:21N 39°12' E 017°54'510.6
2017-Oct-12 16:55N 39°15' E 017°58'510.5
2017-Oct-12 16:28N 39°19' E 018°03'510.5
2017-Oct-12 16:00N 39°22' E 018°07'510.6
2017-Oct-12 15:30N 39°26' E 018°12'611.0
2017-Oct-12 15:00N 39°30' E 018°17'105 9.3
2017-Oct-12 03:43N 41°13' E 017°52'910.8
2017-Oct-12 02:54N 41°20' E 017°45'  
Track history (hours):
 
Tides and Currents Weather Stations Pressure Air Temp Water Temp Dewpoint Dewpoint Depression Visibility Wind Speed Wind Dir Waves Ship Positions

Hafnia Soya

Last reported at 2017-Oct-19 18:30 UTC. Time now 2017-Oct-19 18:41 UTC.
Position N 44°10' E 014°24'.

Length 184 m; draft 10.4 m.

Type: Tanker. MMSI: 566583000.

Date/timePositionNaut miles runAvg speedWind from/ knotsBaromVisibWave heightAir tempDewpointWater temp
2017-Oct-19 18:30N 44°10' E 014°24'612.2
2017-Oct-19 18:00N 44°04' E 014°27'612.1
2017-Oct-19 17:30N 43°59' E 014°31'612.3
2017-Oct-19 17:00N 43°53' E 014°35'612.5
2017-Oct-19 16:30N 43°48' E 014°40'612.4
2017-Oct-19 16:00N 43°42' E 014°44'9612.3
2017-Oct-19 08:14N 42°26' E 016°02'8912.2
2017-Oct-19 00:58N 41°22' E 017°24'911.4
2017-Oct-19 00:10N 41°15' E 017°33'211.2
2017-Oct-19 00:01N 41°14' E 017°35'611.2
2017-Oct-18 23:30N 41°10' E 017°40'2011.4
2017-Oct-18 21:47N 40°56' E 017°57'410.9
2017-Oct-18 21:25N 40°53' E 018°01'410.9
2017-Oct-18 21:00N 40°50' E 018°05'611.3
2017-Oct-18 20:31N 40°46' E 018°10'611.5
2017-Oct-18 20:00N 40°41' E 018°16'611.6
2017-Oct-18 19:30N 40°37' E 018°21'611.7
2017-Oct-18 19:00N 40°33' E 018°26'612.3
2017-Oct-18 18:30N 40°29' E 018°32'612.2
2017-Oct-18 18:00N 40°25' E 018°38'810.9
2017-Oct-18 17:15N 40°17' E 018°43'311.8
2017-Oct-18 17:00N 40°14' E 018°43'711.9
2017-Oct-18 16:26N 40°07' E 018°43'811.9
2017-Oct-18 15:45N 39°60' E 018°41'812.1
2017-Oct-18 15:07N 39°52' E 018°37'211.8
2017-Oct-18 14:56N 39°51' E 018°36'1112.3
2017-Oct-18 14:01N 39°40' E 018°29'612.3
2017-Oct-18 13:30N 39°36' E 018°24'612.2
2017-Oct-18 12:59N 39°31' E 018°18'612.2
2017-Oct-18 12:30N 39°27' E 018°13'611.8
2017-Oct-18 12:00N 39°23' E 018°08'611.8
2017-Oct-18 11:31N 39°18' E 018°02'612.1
2017-Oct-18 11:01N 39°14' E 017°57'611.9
2017-Oct-18 10:30N 39°10' E 017°51'611.8
2017-Oct-18 10:00N 39°06' E 017°46'611.7
2017-Oct-18 09:31N 39°02' E 017°41'611.8
2017-Oct-18 09:01N 38°58' E 017°35'611.8
2017-Oct-18 08:30N 38°53' E 017°30'611.9
2017-Oct-18 08:00N 38°49' E 017°25'611.6
2017-Oct-18 07:31N 38°45' E 017°19'711.5
2017-Oct-18 06:56N 38°40' E 017°14'511.6
2017-Oct-18 06:31N 38°37' E 017°09'611.4
2017-Oct-18 06:00N 38°33' E 017°04'611.3
2017-Oct-18 05:29N 38°28' E 016°58'511.2
2017-Oct-18 05:01N 38°25' E 016°54'811.6
2017-Oct-18 04:18N 38°19' E 016°46'511.9
2017-Oct-18 03:53N 38°15' E 016°42'1411.7
2017-Oct-18 02:44N 38°06' E 016°30'2911.5
2017-Oct-18 00:15N 37°46' E 016°04'411.7
2017-Oct-17 23:53N 37°42' E 016°00'511.8
2017-Oct-17 23:29N 37°39' E 015°56'612.1
2017-Oct-17 23:00N 37°35' E 015°51'612.3
2017-Oct-17 22:29N 37°30' E 015°45'612.4
2017-Oct-17 22:00N 37°26' E 015°40'712.5
2017-Oct-17 21:26N 37°21' E 015°34'  
2017-Oct-13 06:29N 37°34' E 015°50'510.3
2017-Oct-13 06:00N 37°38' E 015°54'610.5
2017-Oct-13 05:28N 37°42' E 015°59'510.6
2017-Oct-13 04:57N 37°46' E 016°04'3210.6
2017-Oct-13 01:53N 38°09' E 016°33'6410.6
2017-Oct-12 19:48N 38°54' E 017°31'1510.3
2017-Oct-12 18:23N 39°05' E 017°44'1110.6
2017-Oct-12 17:21N 39°12' E 017°54'510.6
2017-Oct-12 16:55N 39°15' E 017°58'510.5
2017-Oct-12 16:28N 39°19' E 018°03'510.5
2017-Oct-12 16:00N 39°22' E 018°07'510.6
2017-Oct-12 15:30N 39°26' E 018°12'611.0
2017-Oct-12 15:00N 39°30' E 018°17'105 9.3
2017-Oct-12 03:43N 41°13' E 017°52'910.8
2017-Oct-12 02:54N 41°20' E 017°45'  

Dump ship's entire track history